Time;durP1;ratioP1;P1;durP2;ratioP2;P2;SDS_P1;SDS_P2;PMS_P1;PMS_P2;Temp;Humidity;BMP_temperature;BMP_pressure;BME280_temperature;BME280_humidity;BME280_pressure;Samples;Min_cycle;Max_cycle;Signal;HPM_P1;HPM_P2
2023/10/10 00:01:02;;;;;;;28.77;14.65;;;;;;;;;;5012752;28;20030;-72
2023/10/10 00:03:30;;;;;;;27.52;14.30;;;;;;;;;;5012750;28;20536;-72
2023/10/10 00:05:58;;;;;;;22.70;11.10;;;;;;;;;;5012662;28;20109;-73
2023/10/10 00:08:28;;;;;;;25.95;12.52;;;;;;;;;;5012742;28;20018;-72
2023/10/10 00:10:55;;;;;;;21.55;12.57;;;;;;;;;;5012623;28;20022;-71
2023/10/10 00:13:23;;;;;;;20.23;10.15;;;;;;;;;;5012400;28;20026;-72
2023/10/10 00:15:55;;;;;;;21.67;11.52;;;;;;;;;;5012681;28;20021;-72
2023/10/10 00:18:21;;;;;;;22.05;11.30;;;;;;;;;;5012720;28;20083;-72
2023/10/10 00:21:09;;;;;;;17.48;10.50;;;;;;;;;;5012650;28;20072;-72
2023/10/10 00:23:47;;;;;;;19.67;10.40;;;;;;;;;;5012484;28;20033;-72
2023/10/10 00:26:14;;;;;;;21.63;10.82;;;;;;;;;;5012905;28;20092;-72
2023/10/10 00:28:45;;;;;;;18.60;10.07;;;;;;;;;;5016400;28;20519;-73
2023/10/10 00:31:13;;;;;;;21.80;10.98;;;;;;;;;;5016914;28;20095;-72
2023/10/10 00:33:39;;;;;;;24.20;10.80;;;;;;;;;;5016210;28;20114;-72
2023/10/10 00:36:10;;;;;;;19.55;10.10;;;;;;;;;;5016449;28;20101;-72
2023/10/10 00:38:36;;;;;;;20.80;11.07;;;;;;;;;;5016350;28;20026;-72
2023/10/10 00:41:06;;;;;;;19.35;11.05;;;;;;;;;;5015772;28;20021;-72
2023/10/10 00:43:32;;;;;;;18.95;10.80;;;;;;;;;;5016115;28;20404;-72
2023/10/10 00:45:57;;;;;;;18.80;10.35;;;;;;;;;;5015118;28;20022;-72
2023/10/10 00:48:24;;;;;;;16.50;10.05;;;;;;;;;;5015406;28;20076;-72
2023/10/10 00:50:53;;;;;;;20.13;9.88;;;;;;;;;;5015050;28;20030;-72
2023/10/10 00:53:22;;;;;;;19.38;10.85;;;;;;;;;;5015670;28;20028;-72
2023/10/10 00:55:56;;;;;;;20.17;10.15;;;;;;;;;;5016062;28;20049;-72
2023/10/10 00:58:32;;;;;;;;;;;;;;;;;;5016442;28;20104;-72
2023/10/10 01:00:58;;;;;;;18.55;10.23;;;;;;;;;;5014422;28;19913;-71
2023/10/10 01:03:24;;;;;;;20.00;11.32;;;;;;;;;;5015787;28;20040;-72
2023/10/10 01:05:53;;;;;;;23.65;12.82;;;;;;;;;;5015499;28;20512;-72
2023/10/10 01:08:19;;;;;;;25.27;12.57;;;;;;;;;;5015424;28;20030;-73
2023/10/10 01:10:49;;;;;;;22.45;12.15;;;;;;;;;;5015558;28;20030;-72
2023/10/10 01:13:15;;;;;;;21.17;12.20;;;;;;;;;;5014153;28;20057;-72
2023/10/10 01:15:48;;;;;;;24.83;13.32;;;;;;;;;;5015470;28;20029;-72
2023/10/10 01:18:13;;;;;;;21.63;12.27;;;;;;;;;;5015454;28;20030;-72
2023/10/10 01:20:45;;;;;;;22.52;11.90;;;;;;;;;;5015281;28;20389;-72
2023/10/10 01:23:12;;;;;;;17.45;11.88;;;;;;;;;;5015553;28;20025;-72
2023/10/10 01:28:22;;;;;;;18.05;10.93;;;;;;;;;;5015452;28;20157;-72
2023/10/10 01:33:22;;;;;;;18.48;10.52;;;;;;;;;;5015359;28;20037;-72
2023/10/10 01:35:49;;;;;;;19.20;10.68;;;;;;;;;;5015162;28;20116;-72
2023/10/10 01:38:30;;;;;;;19.25;10.40;;;;;;;;;;5014168;28;20028;-71
2023/10/10 01:40:57;;;;;;;18.08;10.07;;;;;;;;;;5015042;28;20070;-72
2023/10/10 01:43:24;;;;;;;16.55;9.88;;;;;;;;;;5014886;28;20088;-72
2023/10/10 01:46:08;;;;;;;15.77;9.77;;;;;;;;;;5014812;28;20022;-72
2023/10/10 01:48:35;;;;;;;16.05;9.93;;;;;;;;;;5014897;28;20044;-72
2023/10/10 01:51:07;;;;;;;13.43;9.10;;;;;;;;;;5014608;28;20551;-72
2023/10/10 01:53:33;;;;;;;19.75;10.38;;;;;;;;;;5014958;28;20381;-73
2023/10/10 01:56:06;;;;;;;18.98;10.70;;;;;;;;;;5013339;28;20120;-72
2023/10/10 01:58:32;;;;;;;16.63;9.82;;;;;;;;;;5014833;28;20017;-72
2023/10/10 02:00:58;;;;;;;17.73;9.33;;;;;;;;;;5014450;28;20144;-72
2023/10/10 02:03:24;;;;;;;13.95;9.20;;;;;;;;;;5014690;28;20279;-72
2023/10/10 02:05:52;;;;;;;13.35;9.07;;;;;;;;;;5014672;28;20025;-72
2023/10/10 02:08:21;;;;;;;14.38;8.85;;;;;;;;;;5014466;28;20034;-72
2023/10/10 02:10:47;;;;;;;17.60;8.73;;;;;;;;;;5014397;28;20014;-72
2023/10/10 02:13:14;;;;;;;13.68;8.10;;;;;;;;;;5014222;28;20076;-72
2023/10/10 02:15:40;;;;;;;14.63;8.07;;;;;;;;;;5014324;28;20535;-72
2023/10/10 02:18:23;;;;;;;12.75;8.60;;;;;;;;;;5014246;28;20037;-72
2023/10/10 02:23:32;;;;;;;14.60;9.02;;;;;;;;;;5014350;28;20038;-73
2023/10/10 02:26:14;;;;;;;13.50;8.05;;;;;;;;;;5014435;28;20104;-72
2023/10/10 02:28:48;;;;;;;11.73;7.65;;;;;;;;;;5014910;28;20064;-72
2023/10/10 02:31:15;;;;;;;;;;;;;;;;;;5014269;28;20046;-72
2023/10/10 02:33:48;;;;;;;12.07;7.28;;;;;;;;;;5014051;28;19909;-74
2023/10/10 02:36:14;;;;;;;13.18;8.02;;;;;;;;;;5014258;28;20388;-72
2023/10/10 02:38:39;;;;;;;10.35;7.43;;;;;;;;;;5013787;28;20034;-72
2023/10/10 02:43:55;;;;;;;14.50;8.23;;;;;;;;;;5013854;28;20442;-72
2023/10/10 02:46:33;;;;;;;16.08;8.20;;;;;;;;;;5014052;28;20057;-72
2023/10/10 02:49:02;;;;;;;12.93;8.18;;;;;;;;;;5013506;28;20485;-72
2023/10/10 02:51:27;;;;;;;12.35;8.70;;;;;;;;;;5013791;28;20057;-72
2023/10/10 02:53:53;;;;;;;16.63;8.55;;;;;;;;;;5013883;28;20485;-72
2023/10/10 02:56:20;;;;;;;11.48;8.05;;;;;;;;;;5013570;28;20026;-72
2023/10/10 02:58:48;;;;;;;17.65;8.98;;;;;;;;;;5012181;28;20029;-72
2023/10/10 03:01:50;;;;;;;13.07;7.88;;;;;;;;;;5013443;28;20511;-72
2023/10/10 03:04:08;;;;;;;17.17;7.90;;;;;;;;;;5013353;28;20038;-72
2023/10/10 03:06:33;;;;;;;13.43;7.88;;;;;;;;;;5013726;28;20033;-72
2023/10/10 03:09:15;;;;;;;14.20;8.10;;;;;;;;;;5013607;28;20041;-72
2023/10/10 03:11:53;;;;;;;15.63;7.78;;;;;;;;;;5013537;28;20034;-72
2023/10/10 03:14:27;;;;;;;13.40;8.48;;;;;;;;;;5013602;28;20022;-72
2023/10/10 03:16:59;;;;;;;20.90;8.63;;;;;;;;;;5013461;28;20032;-72
2023/10/10 03:19:28;;;;;;;15.38;8.45;;;;;;;;;;5013195;28;20507;-72
2023/10/10 03:23:07;;;;;;;12.23;8.35;;;;;;;;;;5013050;28;20081;-72
2023/10/10 03:30:19;;;;;;;12.68;7.43;;;;;;;;;;5013171;28;20551;-72
2023/10/10 03:33:00;;;;;;;20.50;8.20;;;;;;;;;;5013022;28;20116;-72
2023/10/10 03:35:52;;;;;;;15.85;8.57;;;;;;;;;;5013332;28;20474;-72
2023/10/10 05:24:49;;;;;;;8.07;4.65;;;;;;;;;;5015309;28;20028;-72
2023/10/10 05:27:17;;;;;;;9.65;5.07;;;;;;;;;;5015521;28;20096;-72
2023/10/10 05:29:43;;;;;;;8.13;4.47;;;;;;;;;;5013902;28;20026;-72
2023/10/10 05:32:08;;;;;;;10.85;4.50;;;;;;;;;;5014896;28;20032;-72
2023/10/10 05:34:37;;;;;;;10.73;4.68;;;;;;;;;;5013865;28;20404;-72
2023/10/10 05:37:03;;;;;;;9.63;4.78;;;;;;;;;;5015314;28;20105;-74
2023/10/10 05:39:32;;;;;;;7.95;4.50;;;;;;;;;;5014886;28;20017;-74
2023/10/10 05:41:59;;;;;;;6.65;4.47;;;;;;;;;;5014880;28;20029;-73
2023/10/10 05:44:25;;;;;;;6.93;4.38;;;;;;;;;;5013628;28;20026;-73
2023/10/10 05:46:50;;;;;;;10.75;4.38;;;;;;;;;;5012335;28;20045;-75
2023/10/10 05:49:15;;;;;;;8.35;4.10;;;;;;;;;;5014639;28;20657;-78
2023/10/10 05:51:40;;;;;;;9.35;4.45;;;;;;;;;;5014266;28;20033;-73
2023/10/10 05:54:12;;;;;;;5.40;4.20;;;;;;;;;;5013483;28;20037;-77
2023/10/10 05:56:37;;;;;;;10.35;4.40;;;;;;;;;;5013658;28;20294;-76
2023/10/10 05:59:03;;;;;;;10.95;4.38;;;;;;;;;;5011394;28;20057;-74
2023/10/10 06:01:30;;;;;;;7.30;4.18;;;;;;;;;;5014240;28;20021;-73
2023/10/10 06:03:56;;;;;;;7.75;4.18;;;;;;;;;;5014441;28;20083;-73
2023/10/10 06:06:21;;;;;;;9.52;4.35;;;;;;;;;;5014381;28;20033;-73
2023/10/10 06:08:46;;;;;;;10.50;4.60;;;;;;;;;;5014561;28;20030;-73
2023/10/10 06:11:15;;;;;;;13.85;4.63;;;;;;;;;;5014663;28;20040;-73
2023/10/10 06:13:43;;;;;;;8.02;4.38;;;;;;;;;;5014314;28;20025;-73
2023/10/10 06:16:12;;;;;;;8.93;4.50;;;;;;;;;;5013041;28;20021;-73
2023/10/10 06:18:42;;;;;;;7.57;4.10;;;;;;;;;;5014482;28;20026;-73
2023/10/10 06:21:07;;;;;;;8.38;3.90;;;;;;;;;;5014159;28;20026;-73
2023/10/10 06:23:35;;;;;;;9.65;3.80;;;;;;;;;;5014062;28;20032;-73
2023/10/10 06:26:01;;;;;;;11.25;4.10;;;;;;;;;;5014470;28;20109;-76
2023/10/10 06:28:28;;;;;;;9.13;4.30;;;;;;;;;;5015936;28;20053;-80
2023/10/10 06:30:54;;;;;;;7.05;4.10;;;;;;;;;;5010807;28;20022;-74
2023/10/10 06:33:33;;;;;;;7.85;3.97;;;;;;;;;;5011962;28;20029;-73
2023/10/10 06:38:59;;;;;;;6.97;3.80;;;;;;;;;;5014190;28;20029;-73
2023/10/10 06:41:28;;;;;;;10.30;3.60;;;;;;;;;;5013972;28;20037;-73
2023/10/10 06:43:54;;;;;;;7.10;3.92;;;;;;;;;;5014015;28;20026;-73
2023/10/10 06:46:19;;;;;;;9.80;3.67;;;;;;;;;;5013688;28;20018;-72
2023/10/10 06:48:47;;;;;;;7.35;3.55;;;;;;;;;;5013729;28;20071;-73
2023/10/10 06:51:15;;;;;;;6.07;3.33;;;;;;;;;;5013602;28;20176;-73
2023/10/10 06:53:44;;;;;;;6.35;3.30;;;;;;;;;;5013706;28;20159;-73
2023/10/10 06:56:17;;;;;;;9.20;3.17;;;;;;;;;;5012804;28;20113;-71
2023/10/10 06:58:48;;;;;;;5.78;3.58;;;;;;;;;;5013478;28;20415;-73
2023/10/10 07:01:19;;;;;;;7.03;3.80;;;;;;;;;;5013522;28;20032;-73
2023/10/10 07:03:54;;;;;;;12.13;3.90;;;;;;;;;;5013431;28;20452;-73
2023/10/10 07:06:20;;;;;;;4.95;3.17;;;;;;;;;;5013655;28;20393;-72
2023/10/10 07:08:49;;;;;;;4.68;3.20;;;;;;;;;;5013592;28;20115;-73
2023/10/10 07:11:20;;;;;;;6.78;3.50;;;;;;;;;;5013261;28;20057;-73
2023/10/10 07:13:45;;;;;;;12.88;3.45;;;;;;;;;;5013671;28;20087;-73
2023/10/10 07:16:10;;;;;;;8.40;3.40;;;;;;;;;;5011986;28;20026;-73
2023/10/10 07:18:39;;;;;;;7.18;3.85;;;;;;;;;;5011929;28;20124;-73
2023/10/10 07:21:17;;;;;;;9.05;3.78;;;;;;;;;;5013086;28;20100;-73
2023/10/10 07:24:02;;;;;;;10.48;3.83;;;;;;;;;;5013354;28;20022;-73
2023/10/10 07:26:30;;;;;;;7.38;3.70;;;;;;;;;;5013381;28;20097;-73
2023/10/10 07:28:57;;;;;;;8.70;3.90;;;;;;;;;;5013182;28;20080;-73
2023/10/10 07:31:24;;;;;;;5.55;3.70;;;;;;;;;;5012865;28;20084;-73
2023/10/10 07:34:15;;;;;;;7.40;3.38;;;;;;;;;;5011746;28;20060;-73
2023/10/10 07:36:39;;;;;;;7.50;3.65;;;;;;;;;;5011908;28;20118;-73
2023/10/10 07:39:32;;;;;;;6.28;3.72;;;;;;;;;;5012707;28;20117;-73
2023/10/10 07:41:52;;;;;;;8.10;3.75;;;;;;;;;;5012649;28;20026;-73
2023/10/10 07:44:22;;;;;;;8.70;3.80;;;;;;;;;;5013213;28;20029;-73
2023/10/10 07:49:32;;;;;;;9.60;3.72;;;;;;;;;;5013430;28;20049;-73
2023/10/10 07:52:02;;;;;;;7.00;3.40;;;;;;;;;;5012802;28;20025;-73
2023/10/10 07:54:38;;;;;;;6.32;3.50;;;;;;;;;;5011623;28;20266;-73
2023/10/10 07:57:07;;;;;;;11.55;4.10;;;;;;;;;;5012891;28;20109;-73
2023/10/10 07:59:36;;;;;;;6.93;3.58;;;;;;;;;;5012702;28;20029;-73
2023/10/10 08:02:19;;;;;;;5.85;3.65;;;;;;;;;;5012684;28;20444;-73
2023/10/10 08:04:49;;;;;;;6.40;3.72;;;;;;;;;;5011467;28;20075;-73
2023/10/10 08:07:18;;;;;;;7.38;4.00;;;;;;;;;;5013005;28;20028;-74
2023/10/10 08:09:45;;;;;;;6.22;3.67;;;;;;;;;;5012917;28;20105;-73
2023/10/10 08:12:15;;;;;;;7.13;3.90;;;;;;;;;;5012725;28;20488;-73
2023/10/10 08:14:41;;;;;;;5.70;3.83;;;;;;;;;;5011328;28;20026;-74
2023/10/10 08:17:18;;;;;;;8.27;3.70;;;;;;;;;;5011242;28;20021;-73
2023/10/10 08:19:53;;;;;;;7.55;3.65;;;;;;;;;;5012764;28;20117;-73
2023/10/10 08:22:25;;;;;;;6.63;3.95;;;;;;;;;;5012505;28;20032;-72
2023/10/10 08:24:50;;;;;;;7.10;3.28;;;;;;;;;;5011226;28;20404;-73
2023/10/10 08:27:16;;;;;;;6.50;3.40;;;;;;;;;;5012700;28;20029;-74
2023/10/10 08:29:41;;;;;;;5.32;3.08;;;;;;;;;;5012531;28;20026;-73
2023/10/10 08:32:08;;;;;;;6.43;3.22;;;;;;;;;;5012377;28;20068;-73
2023/10/10 08:34:38;;;;;;;4.78;3.17;;;;;;;;;;5012382;28;20405;-73
2023/10/10 08:37:03;;;;;;;4.38;2.88;;;;;;;;;;5012479;28;20400;-74
2023/10/10 08:39:35;;;;;;;6.85;3.40;;;;;;;;;;5012353;28;20026;-73
2023/10/10 08:42:05;;;;;;;5.10;2.83;;;;;;;;;;5012376;28;20040;-74
2023/10/10 08:44:36;;;;;;;6.88;2.72;;;;;;;;;;5012247;28;20104;-74
2023/10/10 08:47:08;;;;;;;4.22;2.42;;;;;;;;;;5012400;28;20441;-73
2023/10/10 08:49:33;;;;;;;5.35;2.60;;;;;;;;;;5015883;28;20018;-73
2023/10/10 08:52:02;;;;;;;6.10;2.40;;;;;;;;;;5016013;28;20104;-73
2023/10/10 08:54:28;;;;;;;5.13;2.20;;;;;;;;;;5015655;28;20025;-74
2023/10/10 08:56:59;;;;;;;8.70;2.25;;;;;;;;;;5015711;28;20392;-73
2023/10/10 08:59:26;;;;;;;8.70;2.20;;;;;;;;;;5016016;28;20029;-73
2023/10/10 09:01:51;;;;;;;3.55;1.92;;;;;;;;;;5015785;28;20060;-73
2023/10/10 09:04:19;;;;;;;4.40;2.13;;;;;;;;;;5015607;28;20029;-73
2023/10/10 09:06:52;;;;;;;4.75;1.95;;;;;;;;;;5015548;28;20025;-73
2023/10/10 09:12:03;;;;;;;5.65;1.70;;;;;;;;;;5016268;28;20022;-74
2023/10/10 09:14:43;;;;;;;3.60;1.80;;;;;;;;;;5015271;28;20039;-74
2023/10/10 09:17:34;;;;;;;5.10;1.60;;;;;;;;;;5015853;28;20026;-74
2023/10/10 09:20:08;;;;;;;3.33;1.42;;;;;;;;;;5015692;28;20559;-73
2023/10/10 09:22:42;;;;;;;4.40;1.70;;;;;;;;;;5013736;28;20462;-72
2023/10/10 09:25:19;;;;;;;;;;;;;;;;;;5015013;28;20044;-73
2023/10/10 09:28:00;;;;;;;3.00;1.40;;;;;;;;;;5014984;28;19933;-73
2023/10/10 09:30:32;;;;;;;2.85;1.45;;;;;;;;;;5015159;28;20021;-73
2023/10/10 09:33:23;;;;;;;4.88;1.45;;;;;;;;;;5014866;28;20030;-73
2023/10/10 09:35:53;;;;;;;2.60;1.30;;;;;;;;;;5015148;28;20022;-73
2023/10/10 09:38:22;;;;;;;2.95;1.38;;;;;;;;;;5013754;28;20029;-73
2023/10/10 09:40:56;;;;;;;3.88;1.20;;;;;;;;;;5013599;28;20485;-73
2023/10/10 09:43:25;;;;;;;4.85;1.40;;;;;;;;;;5014869;28;20478;-73
2023/10/10 09:46:10;;;;;;;3.95;1.40;;;;;;;;;;5013559;28;20129;-73
2023/10/10 09:53:48;;;;;;;;;;;;;;;;;;5015554;28;20060;-73
2023/10/10 09:56:15;;;;;;;1.92;1.13;;;;;;;;;;5013332;28;19909;-73
2023/10/10 09:58:43;;;;;;;3.28;1.30;;;;;;;;;;5014051;28;20050;-73
2023/10/10 10:01:14;;;;;;;5.28;1.95;;;;;;;;;;5013965;28;20065;-73
2023/10/10 10:03:54;;;;;;;4.40;1.27;;;;;;;;;;5014827;28;20026;-75
2023/10/10 10:09:09;;;;;;;2.92;1.48;;;;;;;;;;5014752;28;20057;-76
2023/10/10 10:11:56;;;;;;;4.50;1.80;;;;;;;;;;5014426;28;20492;-73
2023/10/10 10:14:35;;;;;;;3.83;1.50;;;;;;;;;;5014498;28;20108;-72
2023/10/10 10:17:30;;;;;;;1.95;1.50;;;;;;;;;;5014342;28;20030;-73
2023/10/10 10:20:19;;;;;;;3.28;1.60;;;;;;;;;;5012823;28;20022;-73
2023/10/10 10:22:44;;;;;;;3.88;1.77;;;;;;;;;;5014081;28;20030;-72
2023/10/10 10:25:25;;;;;;;2.53;1.70;;;;;;;;;;5014173;28;20116;-72
2023/10/10 10:28:00;;;;;;;2.78;1.80;;;;;;;;;;5014191;28;20263;-72
2023/10/10 10:32:55;;;;;;;8.02;1.98;;;;;;;;;;5012623;28;20513;-72
2023/10/10 10:35:24;;;;;;;4.35;1.90;;;;;;;;;;5014237;28;20397;-73
2023/10/10 10:37:59;;;;;;;4.90;1.80;;;;;;;;;;5013875;28;20028;-73
2023/10/10 10:43:05;;;;;;;2.35;1.77;;;;;;;;;;5013839;28;20030;-72
2023/10/10 10:45:38;;;;;;;2.20;1.63;;;;;;;;;;5014103;28;20481;-72
2023/10/10 10:48:08;;;;;;;3.73;2.30;;;;;;;;;;5013907;28;20017;-72
2023/10/10 10:50:42;;;;;;;3.08;1.98;;;;;;;;;;5013375;28;20339;-72
2023/10/10 10:53:30;;;;;;;3.80;1.90;;;;;;;;;;5012358;28;20447;-72
2023/10/10 10:56:25;;;;;;;4.20;2.00;;;;;;;;;;5012439;28;20021;-71
2023/10/10 11:01:21;;;;;;;3.28;2.00;;;;;;;;;;5013204;28;20057;-71
2023/10/10 11:03:51;;;;;;;3.00;2.10;;;;;;;;;;5012503;28;20030;-72
2023/10/10 11:06:20;;;;;;;3.63;2.10;;;;;;;;;;5011424;28;20374;-73
2023/10/10 11:11:36;;;;;;;3.22;2.25;;;;;;;;;;5013319;28;20057;-73
2023/10/10 11:14:18;;;;;;;3.58;2.40;;;;;;;;;;5012100;28;20038;-72
2023/10/10 11:16:45;;;;;;;6.07;2.47;;;;;;;;;;5012049;28;20041;-73
2023/10/10 11:19:18;;;;;;;3.50;2.47;;;;;;;;;;5013199;28;20034;-73
2023/10/10 11:21:49;;;;;;;5.43;2.90;;;;;;;;;;5013432;28;20029;-73
2023/10/10 11:24:23;;;;;;;4.53;2.65;;;;;;;;;;5013367;28;20121;-73
2023/10/10 11:26:59;;;;;;;5.70;3.00;;;;;;;;;;5013212;28;20037;-73
2023/10/10 11:29:28;;;;;;;5.25;3.08;;;;;;;;;;5012733;28;20388;-72
2023/10/10 11:32:07;;;;;;;5.50;3.40;;;;;;;;;;5012922;28;20120;-73
2023/10/10 11:34:45;;;;;;;4.57;3.22;;;;;;;;;;5013373;28;20484;-73
2023/10/10 11:37:13;;;;;;;4.07;2.60;;;;;;;;;;5013102;28;20057;-72
2023/10/10 11:39:47;;;;;;;4.63;3.17;;;;;;;;;;5013031;28;20036;-72
2023/10/10 11:42:23;;;;;;;4.45;2.97;;;;;;;;;;5013055;28;20032;-72
2023/10/10 11:45:05;;;;;;;3.97;2.80;;;;;;;;;;5013059;28;20025;-72
2023/10/10 11:47:31;;;;;;;4.25;2.92;;;;;;;;;;5012974;28;20030;-73
2023/10/10 11:50:01;;;;;;;4.40;2.97;;;;;;;;;;5012921;28;20030;-73
2023/10/10 11:52:28;;;;;;;10.98;3.13;;;;;;;;;;5012808;28;20448;-73
2023/10/10 11:54:58;;;;;;;3.22;2.67;;;;;;;;;;5011525;28;20026;-73
2023/10/10 11:57:24;;;;;;;3.95;2.92;;;;;;;;;;5011706;28;20123;-72
2023/10/10 11:59:49;;;;;;;4.03;2.67;;;;;;;;;;5013343;28;20469;-73
2023/10/10 12:02:17;;;;;;;4.53;3.00;;;;;;;;;;5012904;28;20034;-72
2023/10/10 12:04:44;;;;;;;9.90;3.15;;;;;;;;;;5013025;28;20346;-72
2023/10/10 12:07:13;;;;;;;5.03;2.90;;;;;;;;;;5012875;28;20054;-73
2023/10/10 12:09:44;;;;;;;5.13;3.20;;;;;;;;;;5012789;28;20014;-73
2023/10/10 12:12:10;;;;;;;3.53;2.80;;;;;;;;;;5012990;28;20022;-72
2023/10/10 12:14:35;;;;;;;5.03;2.72;;;;;;;;;;5012606;28;20022;-72
2023/10/10 12:17:05;;;;;;;4.13;2.67;;;;;;;;;;5013023;28;20065;-72
2023/10/10 12:19:43;;;;;;;2.47;2.28;;;;;;;;;;5012565;28;20033;-73
2023/10/10 12:22:10;;;;;;;3.83;2.50;;;;;;;;;;5012812;28;20029;-73
2023/10/10 12:24:36;;;;;;;5.18;3.05;;;;;;;;;;5016724;28;20057;-73
2023/10/10 12:27:06;;;;;;;4.15;2.42;;;;;;;;;;5015064;28;20028;-73
2023/10/10 12:29:32;;;;;;;5.47;2.28;;;;;;;;;;5016298;28;20034;-72
2023/10/10 12:31:57;;;;;;;7.72;2.40;;;;;;;;;;5017041;28;20103;-75
2023/10/10 12:34:23;;;;;;;3.00;2.05;;;;;;;;;;5016435;28;20026;-78
2023/10/10 12:36:59;;;;;;;4.20;2.55;;;;;;;;;;5015354;28;20026;-74
2023/10/10 12:39:27;;;;;;;3.42;2.70;;;;;;;;;;5016677;28;20026;-75
2023/10/10 12:41:53;;;;;;;4.30;2.30;;;;;;;;;;5016270;28;20073;-74
2023/10/10 12:44:18;;;;;;;3.67;2.85;;;;;;;;;;5014748;28;20482;-74
2023/10/10 12:46:44;;;;;;;2.57;2.10;;;;;;;;;;5015974;28;20037;-75
2023/10/10 12:49:11;;;;;;;7.65;2.33;;;;;;;;;;5016164;28;20722;-74
2023/10/10 12:51:38;;;;;;;4.13;2.60;;;;;;;;;;5014537;28;20036;-73
2023/10/10 12:54:05;;;;;;;5.72;2.40;;;;;;;;;;5015861;28;20033;-74
2023/10/10 12:56:38;;;;;;;7.93;2.67;;;;;;;;;;5015810;28;20116;-74
2023/10/10 12:59:04;;;;;;;6.03;2.67;;;;;;;;;;5016201;28;20026;-73
2023/10/10 13:01:32;;;;;;;5.38;2.70;;;;;;;;;;5015018;28;20033;-72
2023/10/10 13:03:58;;;;;;;4.93;2.80;;;;;;;;;;5015485;28;20507;-73
2023/10/10 13:06:24;;;;;;;4.88;2.45;;;;;;;;;;5014199;28;20415;-72
2023/10/10 13:08:55;;;;;;;4.47;2.75;;;;;;;;;;5015819;28;20026;-72
2023/10/10 13:11:32;;;;;;;6.57;3.22;;;;;;;;;;5014264;28;20064;-73
2023/10/10 13:14:08;;;;;;;4.00;2.72;;;;;;;;;;5015867;28;20084;-73
2023/10/10 13:19:09;;;;;;;6.03;3.10;;;;;;;;;;5015666;28;20034;-73
2023/10/10 13:21:43;;;;;;;6.05;3.03;;;;;;;;;;5014058;28;20480;-75
2023/10/10 13:24:13;;;;;;;5.20;3.15;;;;;;;;;;5015767;28;20105;-72
2023/10/10 13:26:40;;;;;;;7.13;3.33;;;;;;;;;;5015312;28;20029;-73
2023/10/10 13:29:06;;;;;;;6.63;3.47;;;;;;;;;;5015118;28;20044;-73
2023/10/10 13:31:34;;;;;;;7.15;3.30;;;;;;;;;;5013710;28;20034;-73
2023/10/10 13:34:00;;;;;;;7.38;3.60;;;;;;;;;;5015100;28;20034;-73
2023/10/10 13:36:26;;;;;;;6.38;3.97;;;;;;;;;;5015337;28;20026;-74
2023/10/10 13:38:57;;;;;;;12.05;4.03;;;;;;;;;;5013739;28;20115;-72
2023/10/10 13:41:24;;;;;;;6.05;3.75;;;;;;;;;;5015075;28;20113;-72
2023/10/10 13:43:51;;;;;;;8.52;4.03;;;;;;;;;;5014917;28;20070;-73
2023/10/10 13:46:23;;;;;;;7.07;3.78;;;;;;;;;;5015046;28;20463;-73
2023/10/10 13:48:49;;;;;;;6.13;3.60;;;;;;;;;;5014869;28;20489;-73
2023/10/10 13:51:16;;;;;;;6.18;3.78;;;;;;;;;;5014955;28;20025;-73
2023/10/10 13:53:44;;;;;;;7.22;3.80;;;;;;;;;;5014322;28;20472;-73
2023/10/10 13:56:12;;;;;;;7.22;3.63;;;;;;;;;;5014510;28;20021;-72
2023/10/10 13:58:40;;;;;;;11.50;3.80;;;;;;;;;;5013238;28;20030;-74
2023/10/10 14:03:45;;;;;;;5.80;3.83;;;;;;;;;;5014440;28;20029;-72
2023/10/10 14:06:12;;;;;;;8.15;3.95;;;;;;;;;;5014676;28;20034;-73
2023/10/10 14:08:37;;;;;;;6.07;4.10;;;;;;;;;;5014344;28;20435;-73
2023/10/10 14:11:04;;;;;;;6.93;3.78;;;;;;;;;;5014233;28;20028;-72
2023/10/10 14:13:29;;;;;;;6.97;4.20;;;;;;;;;;5014107;28;20026;-73
2023/10/10 14:15:56;;;;;;;6.68;4.22;;;;;;;;;;5014268;28;20026;-72
2023/10/10 14:18:29;;;;;;;7.10;4.00;;;;;;;;;;5012509;28;20121;-72
2023/10/10 14:20:55;;;;;;;7.43;4.10;;;;;;;;;;5014209;28;20440;-72
2023/10/10 14:23:24;;;;;;;5.97;3.92;;;;;;;;;;5013885;28;20034;-72
2023/10/10 14:25:49;;;;;;;6.95;3.95;;;;;;;;;;5013958;28;20029;-72
2023/10/10 14:28:16;;;;;;;7.22;4.43;;;;;;;;;;5014069;28;20547;-72
2023/10/10 14:30:49;;;;;;;8.80;4.30;;;;;;;;;;5012683;28;20033;-74
2023/10/10 14:33:16;;;;;;;7.70;4.35;;;;;;;;;;5014026;28;20021;-74
2023/10/10 14:35:41;;;;;;;7.85;4.10;;;;;;;;;;5013808;28;20022;-72
2023/10/10 14:38:06;;;;;;;10.77;4.80;;;;;;;;;;5014166;28;20363;-72
2023/10/10 14:40:33;;;;;;;8.43;4.15;;;;;;;;;;5013745;28;20172;-72
2023/10/10 14:42:58;;;;;;;10.90;4.18;;;;;;;;;;5013997;28;20611;-75
2023/10/10 14:45:28;;;;;;;7.35;4.00;;;;;;;;;;5013890;28;20061;-72
2023/10/10 14:47:55;;;;;;;7.93;4.00;;;;;;;;;;5014301;28;20026;-72
2023/10/10 14:50:24;;;;;;;10.35;4.10;;;;;;;;;;5014166;28;20032;-75
2023/10/10 14:52:50;;;;;;;7.13;3.80;;;;;;;;;;5013299;28;20022;-72
2023/10/10 14:55:27;;;;;;;8.38;3.95;;;;;;;;;;5013556;28;20022;-73
2023/10/10 14:57:56;;;;;;;9.73;4.32;;;;;;;;;;5011446;28;20120;-73
2023/10/10 15:00:27;;;;;;;7.13;4.78;;;;;;;;;;5011723;28;20033;-72
2023/10/10 15:02:53;;;;;;;9.52;4.28;;;;;;;;;;5013264;28;20108;-72
2023/10/10 15:05:20;;;;;;;9.02;4.45;;;;;;;;;;5013406;28;20056;-73
2023/10/10 15:07:46;;;;;;;7.47;4.47;;;;;;;;;;5013415;28;20125;-72
2023/10/10 15:10:11;;;;;;;6.05;4.35;;;;;;;;;;5013322;28;20504;-73
2023/10/10 15:12:36;;;;;;;9.85;4.85;;;;;;;;;;5013692;28;20469;-72
2023/10/10 15:15:02;;;;;;;7.68;4.38;;;;;;;;;;5012147;28;20033;-72
2023/10/10 15:17:27;;;;;;;10.15;4.55;;;;;;;;;;5012039;28;20053;-72
2023/10/10 15:19:53;;;;;;;9.13;4.40;;;;;;;;;;5013207;28;20030;-73
2023/10/10 15:22:18;;;;;;;7.65;4.70;;;;;;;;;;5013270;28;20458;-72
2023/10/10 15:24:50;;;;;;;10.30;5.20;;;;;;;;;;5011984;28;20076;-72
2023/10/10 15:27:17;;;;;;;14.52;4.95;;;;;;;;;;5013260;28;20096;-72
2023/10/10 15:29:42;;;;;;;12.63;5.13;;;;;;;;;;5013126;28;20018;-72
2023/10/10 15:32:08;;;;;;;11.27;5.28;;;;;;;;;;5012495;28;20032;-72
2023/10/10 15:34:34;;;;;;;10.00;5.45;;;;;;;;;;5012285;28;20038;-72
2023/10/10 15:37:09;;;;;;;12.40;5.28;;;;;;;;;;5012122;28;20033;-73
2023/10/10 15:39:38;;;;;;;9.40;5.00;;;;;;;;;;5010914;28;20544;-73
2023/10/10 15:42:04;;;;;;;16.17;5.90;;;;;;;;;;5012127;28;20038;-74
2023/10/10 15:44:30;;;;;;;18.92;6.85;;;;;;;;;;5010837;28;20115;-74
2023/10/10 15:46:58;;;;;;;15.30;8.80;;;;;;;;;;5012085;28;20065;-73
2023/10/10 15:49:25;;;;;;;16.65;9.65;;;;;;;;;;5012382;28;20025;-73
2023/10/10 15:51:50;;;;;;;12.73;6.20;;;;;;;;;;5010707;28;20075;-74
2023/10/10 15:54:16;;;;;;;11.00;5.65;;;;;;;;;;5012406;28;20104;-73
2023/10/10 15:56:41;;;;;;;8.73;5.13;;;;;;;;;;5012276;28;20123;-74
2023/10/10 15:59:07;;;;;;;7.57;6.07;;;;;;;;;;5015306;28;20022;-73
2023/10/10 16:01:34;;;;;;;12.65;5.53;;;;;;;;;;5015567;28;20050;-73
2023/10/10 16:04:05;;;;;;;11.45;4.80;;;;;;;;;;5015478;28;20025;-73
2023/10/10 16:06:33;;;;;;;9.80;5.70;;;;;;;;;;5015607;28;20481;-73
2023/10/10 16:09:03;;;;;;;9.20;5.40;;;;;;;;;;5015533;28;20464;-74
2023/10/10 16:11:31;;;;;;;11.32;5.70;;;;;;;;;;5015306;28;20100;-73
2023/10/10 16:13:58;;;;;;;8.85;5.35;;;;;;;;;;5015354;28;20084;-73
2023/10/10 16:16:23;;;;;;;14.73;5.72;;;;;;;;;;5015659;28;20097;-73
2023/10/10 16:18:48;;;;;;;12.23;6.18;;;;;;;;;;5015253;28;20033;-73
2023/10/10 16:21:14;;;;;;;12.32;5.88;;;;;;;;;;5015149;28;20370;-74
2023/10/10 16:23:43;;;;;;;10.02;5.60;;;;;;;;;;5015191;28;20022;-73
2023/10/10 16:26:10;;;;;;;8.85;5.32;;;;;;;;;;5015139;28;20018;-74
2023/10/10 16:28:35;;;;;;;11.50;5.88;;;;;;;;;;5015118;28;20079;-73
2023/10/10 16:31:10;;;;;;;9.93;5.07;;;;;;;;;;4980178;28;1011689;-73
2023/10/10 16:33:37;;;;;;;9.68;5.38;;;;;;;;;;5016277;28;20029;-73
2023/10/10 16:36:15;;;;;;;11.18;6.70;;;;;;;;;;5016246;28;20029;-73
2023/10/10 16:38:41;;;;;;;10.35;5.32;;;;;;;;;;5015009;28;20022;-73
2023/10/10 16:41:09;;;;;;;9.55;5.20;;;;;;;;;;5016055;28;20030;-73
2023/10/10 16:43:38;;;;;;;9.55;5.30;;;;;;;;;;5016088;28;20021;-73
2023/10/10 16:46:12;;;;;;;8.02;5.38;;;;;;;;;;5015967;28;20018;-74
2023/10/10 16:48:41;;;;;;;7.97;5.10;;;;;;;;;;5016159;28;20493;-73
2023/10/10 16:51:08;;;;;;;9.80;5.50;;;;;;;;;;5015917;28;20026;-74
2023/10/10 16:53:34;;;;;;;10.20;5.13;;;;;;;;;;5014762;28;20097;-74
2023/10/10 16:56:06;;;;;;;7.63;4.88;;;;;;;;;;5015133;28;20017;-74
2023/10/10 16:58:41;;;;;;;6.85;5.05;;;;;;;;;;5013824;28;20084;-73
2023/10/10 17:01:15;;;;;;;9.00;5.18;;;;;;;;;;5014425;28;20030;-73
2023/10/10 17:03:54;;;;;;;8.30;4.72;;;;;;;;;;5014636;28;20025;-73
2023/10/10 17:06:25;;;;;;;8.73;5.03;;;;;;;;;;5014430;28;20022;-74
2023/10/10 17:08:55;;;;;;;8.05;5.38;;;;;;;;;;5015513;28;20021;-73
2023/10/10 17:11:22;;;;;;;8.48;5.20;;;;;;;;;;5015748;28;20022;-73
2023/10/10 17:13:49;;;;;;;8.75;5.72;;;;;;;;;;5015502;28;20030;-73
2023/10/10 17:16:17;;;;;;;10.75;5.80;;;;;;;;;;5015531;28;20030;-73
2023/10/10 17:18:48;;;;;;;11.15;5.43;;;;;;;;;;5015615;28;20071;-73
2023/10/10 17:21:19;;;;;;;12.15;5.78;;;;;;;;;;5015624;28;20062;-73
2023/10/10 17:23:47;;;;;;;9.25;5.50;;;;;;;;;;5016069;28;20032;-73
2023/10/10 17:26:13;;;;;;;14.05;6.30;;;;;;;;;;5014242;28;20573;-73
2023/10/10 17:28:39;;;;;;;12.50;7.32;;;;;;;;;;5015670;28;20030;-73